createdAt,value
2022-12-26T00:02:09.742Z,11.40
2022-12-26T00:04:51.020Z,11.18
2022-12-26T00:07:19.121Z,9.07
2022-12-26T00:09:45.587Z,9.80
2022-12-26T00:12:12.068Z,9.40
2022-12-26T00:14:39.818Z,10.77
2022-12-26T00:17:06.285Z,10.00
2022-12-26T00:19:32.857Z,11.80
2022-12-26T00:21:59.384Z,9.02
2022-12-26T00:24:25.949Z,9.30
2022-12-26T00:26:52.468Z,9.38
2022-12-26T00:29:19.000Z,11.00
2022-12-26T00:31:46.885Z,10.80
2022-12-26T00:34:16.189Z,10.98
2022-12-26T00:36:42.661Z,10.25
2022-12-26T00:39:12.910Z,9.43
2022-12-26T00:41:39.411Z,9.38
2022-12-26T00:44:06.230Z,8.57
2022-12-26T00:46:32.830Z,7.50
2022-12-26T00:49:00.109Z,8.43
2022-12-26T00:51:26.755Z,9.93
2022-12-26T00:53:56.631Z,10.30
2022-12-26T00:56:26.519Z,11.82
2022-12-26T00:58:56.411Z,11.07
2022-12-26T01:01:23.452Z,10.68
2022-12-26T01:03:51.049Z,9.38
2022-12-26T01:06:18.487Z,9.40
2022-12-26T01:08:45.160Z,10.45
2022-12-26T01:11:14.512Z,10.55
2022-12-26T01:13:41.446Z,12.48
2022-12-26T01:16:11.070Z,9.90
2022-12-26T01:18:37.916Z,13.93
2022-12-26T01:21:08.644Z,9.95
2022-12-26T01:23:35.197Z,8.45
2022-12-26T01:26:17.097Z,7.15
2022-12-26T01:28:45.947Z,9.00
2022-12-26T01:31:12.409Z,8.70
2022-12-26T01:33:38.966Z,9.25
2022-12-26T01:36:08.420Z,11.65
2022-12-26T01:38:38.607Z,8.20
2022-12-26T01:41:17.657Z,6.75
2022-12-26T01:43:57.111Z,8.50
2022-12-26T01:46:40.606Z,8.98
2022-12-26T01:49:20.616Z,6.07
2022-12-26T01:51:52.117Z,8.27
2022-12-26T01:54:41.011Z,8.45
2022-12-26T01:57:13.105Z,10.43
2022-12-26T01:59:41.338Z,9.77
2022-12-26T02:02:08.586Z,9.38
2022-12-26T02:04:56.636Z,12.82
2022-12-26T02:07:24.377Z,9.75
2022-12-26T02:09:51.088Z,10.52
2022-12-26T02:12:33.871Z,8.63
2022-12-26T02:15:06.039Z,7.25
2022-12-26T02:17:36.683Z,4.97
2022-12-26T02:20:26.244Z,3.00
2022-12-26T02:22:55.678Z,3.78
2022-12-26T02:25:42.352Z,3.13
2022-12-26T02:28:08.752Z,2.95
2022-12-26T02:30:58.020Z,2.88
2022-12-26T02:33:45.034Z,3.25
2022-12-26T02:36:26.773Z,3.40
2022-12-26T02:39:44.298Z,3.78
2022-12-26T02:42:42.186Z,3.58
2022-12-26T02:45:42.484Z,2.30
2022-12-26T02:48:20.262Z,2.45
2022-12-26T02:51:35.535Z,3.13
2022-12-26T02:54:50.512Z,2.97
2022-12-26T02:57:40.343Z,3.78
2022-12-26T03:00:31.838Z,3.38
2022-12-26T03:03:22.272Z,3.27
2022-12-26T03:06:13.258Z,4.90
2022-12-26T03:09:18.874Z,5.05
2022-12-26T03:12:09.177Z,3.95
2022-12-26T03:14:38.813Z,3.17
2022-12-26T03:17:22.054Z,3.00
2022-12-26T03:20:01.802Z,2.85
2022-12-26T03:22:38.849Z,2.67
2022-12-26T03:25:35.086Z,1.55
2022-12-26T03:28:01.694Z,3.70
2022-12-26T03:30:46.800Z,1.35
2022-12-26T03:33:32.016Z,1.55
2022-12-26T03:35:58.873Z,1.20
2022-12-26T03:38:35.085Z,1.20
2022-12-26T03:41:35.835Z,0.80
2022-12-26T03:44:56.553Z,1.00
2022-12-26T03:48:20.160Z,2.72
2022-12-26T03:51:25.861Z,1.20
2022-12-26T03:54:39.972Z,2.35
2022-12-26T03:57:30.749Z,2.17
2022-12-26T04:00:26.254Z,1.20
2022-12-26T04:03:15.760Z,1.90
2022-12-26T04:06:06.016Z,1.23
2022-12-26T04:09:15.846Z,1.35
2022-12-26T04:12:03.116Z,1.23
2022-12-26T04:15:03.354Z,1.40
2022-12-26T04:18:00.295Z,1.50
2022-12-26T04:21:07.553Z,3.78
2022-12-26T04:24:00.662Z,2.60
2022-12-26T04:27:01.575Z,2.67
2022-12-26T04:29:50.407Z,2.78
2022-12-26T04:33:02.593Z,1.80
2022-12-26T04:36:06.650Z,2.47
2022-12-26T04:38:57.116Z,3.28
2022-12-26T04:41:44.246Z,2.25
2022-12-26T04:44:13.112Z,4.93
2022-12-26T04:46:42.844Z,2.20
2022-12-26T04:49:34.307Z,2.05
2022-12-26T04:52:03.991Z,1.57
2022-12-26T04:54:30.540Z,3.00
2022-12-26T04:56:57.056Z,2.00
2022-12-26T04:59:24.314Z,2.17
2022-12-26T05:02:10.041Z,3.05
2022-12-26T05:04:55.100Z,2.08
2022-12-26T05:07:58.055Z,3.83
2022-12-26T05:10:27.672Z,3.47
2022-12-26T05:12:55.121Z,2.08
2022-12-26T05:15:22.087Z,2.75
2022-12-26T05:18:07.134Z,1.58
2022-12-26T05:20:33.647Z,2.00
2022-12-26T05:23:20.615Z,2.60
2022-12-26T05:26:06.819Z,2.28
2022-12-26T05:28:42.339Z,4.25
2022-12-26T05:31:15.937Z,1.77
2022-12-26T05:34:01.580Z,1.92
2022-12-26T05:36:31.257Z,2.53
2022-12-26T05:38:57.815Z,1.63
2022-12-26T05:41:24.554Z,2.13
2022-12-26T05:43:51.100Z,3.40
2022-12-26T05:46:17.735Z,2.20
2022-12-26T05:48:44.306Z,6.75
2022-12-26T05:51:10.791Z,7.30
2022-12-26T05:53:37.821Z,12.27
2022-12-26T05:56:14.706Z,2.08
2022-12-26T05:58:41.720Z,2.55
2022-12-26T06:01:19.772Z,3.05
2022-12-26T06:03:48.677Z,2.50
2022-12-26T06:06:16.227Z,2.45
2022-12-26T06:08:43.511Z,2.05
2022-12-26T06:11:15.500Z,2.05
2022-12-26T06:16:10.895Z,2.20
2022-12-26T06:18:37.696Z,18.00
2022-12-26T06:21:13.285Z,14.70
2022-12-26T06:23:40.467Z,2.00
2022-12-26T06:26:09.543Z,1.65
2022-12-26T06:28:36.897Z,1.50
2022-12-26T06:31:09.032Z,1.55
2022-12-26T06:33:35.988Z,2.55
2022-12-26T06:36:11.380Z,1.25
2022-12-26T06:38:38.484Z,3.08
2022-12-26T06:41:06.822Z,2.17
2022-12-26T06:43:33.474Z,2.30
2022-12-26T06:46:02.028Z,1.65
2022-12-26T06:48:29.110Z,2.58
2022-12-26T06:50:55.587Z,4.45
2022-12-26T06:53:23.509Z,2.25
2022-12-26T06:55:50.505Z,1.70
2022-12-26T06:58:17.556Z,2.38
2022-12-26T07:00:44.279Z,3.72
2022-12-26T07:03:11.829Z,3.63
2022-12-26T07:05:39.246Z,2.53
2022-12-26T07:08:06.198Z,2.83
2022-12-26T07:10:36.585Z,2.50
2022-12-26T07:13:03.131Z,3.50
2022-12-26T07:15:29.583Z,3.42
2022-12-26T07:17:56.081Z,3.00
2022-12-26T07:20:22.533Z,3.20
2022-12-26T07:22:49.022Z,2.42
2022-12-26T07:25:15.572Z,3.40
2022-12-26T07:27:42.059Z,3.95
2022-12-26T07:30:10.374Z,2.40
2022-12-26T07:32:36.841Z,3.50
2022-12-26T07:35:03.594Z,3.47
2022-12-26T07:37:30.076Z,4.32
2022-12-26T07:39:59.119Z,3.70
2022-12-26T07:42:26.065Z,5.03
2022-12-26T07:44:52.640Z,5.03
2022-12-26T07:47:19.130Z,4.85
2022-12-26T07:49:45.636Z,4.85
2022-12-26T07:52:12.203Z,5.75
2022-12-26T07:54:38.701Z,5.70
2022-12-26T07:57:37.982Z,6.05
2022-12-26T07:59:53.670Z,7.28
2022-12-26T08:02:20.611Z,6.20
2022-12-26T08:04:47.767Z,6.78
2022-12-26T08:07:14.235Z,7.30
2022-12-26T08:09:42.880Z,6.00
2022-12-26T08:12:13.619Z,6.25
2022-12-26T08:14:40.824Z,6.70
2022-12-26T08:17:08.526Z,7.15
2022-12-26T08:19:35.074Z,6.97
2022-12-26T08:22:04.604Z,7.30
2022-12-26T08:24:31.211Z,6.93
2022-12-26T08:26:57.768Z,8.80
2022-12-26T08:29:24.381Z,9.02
2022-12-26T08:31:50.935Z,7.20
2022-12-26T08:34:17.443Z,7.30
2022-12-26T08:36:44.001Z,7.03
2022-12-26T08:39:10.654Z,6.45
2022-12-26T08:41:37.877Z,6.75
2022-12-26T08:46:50.902Z,6.43
2022-12-26T08:49:17.477Z,10.38
2022-12-26T08:51:43.931Z,7.00
2022-12-26T08:54:10.561Z,7.68
2022-12-26T08:56:39.144Z,4.82
2022-12-26T08:59:05.895Z,4.43
2022-12-26T09:01:32.772Z,4.78
2022-12-26T09:04:03.188Z,4.03
2022-12-26T09:06:32.989Z,3.78
2022-12-26T09:09:00.466Z,5.40
2022-12-26T09:11:27.125Z,5.80
2022-12-26T09:13:54.947Z,5.47
2022-12-26T09:16:31.543Z,6.15
2022-12-26T09:19:02.118Z,12.60
2022-12-26T09:21:29.682Z,5.78
2022-12-26T09:24:04.579Z,7.97
2022-12-26T09:26:31.633Z,10.40
2022-12-26T09:28:58.706Z,34.25
2022-12-26T09:31:29.270Z,12.13
2022-12-26T09:33:58.834Z,8.50
2022-12-26T09:36:28.441Z,9.73
2022-12-26T09:38:56.792Z,6.55
2022-12-26T09:41:43.765Z,7.03
2022-12-26T09:44:20.088Z,5.10
2022-12-26T09:47:07.799Z,6.82
2022-12-26T09:49:38.960Z,5.13
2022-12-26T09:52:12.814Z,3.97
2022-12-26T09:54:44.579Z,9.02
2022-12-26T09:57:23.474Z,10.15
2022-12-26T09:59:56.555Z,4.50
2022-12-26T10:02:25.311Z,5.05
2022-12-26T10:04:53.352Z,3.42
2022-12-26T10:07:40.196Z,4.07
2022-12-26T10:10:54.645Z,7.60
2022-12-26T10:13:28.168Z,3.97
2022-12-26T10:16:08.839Z,3.92
2022-12-26T10:18:59.514Z,2.63
2022-12-26T10:21:38.125Z,2.70
2022-12-26T10:24:20.892Z,4.00
2022-12-26T10:26:56.149Z,3.10
2022-12-26T10:29:37.938Z,4.10
2022-12-26T10:32:36.605Z,14.40
2022-12-26T10:35:29.904Z,6.07
2022-12-26T10:38:27.485Z,5.43
2022-12-26T10:40:59.473Z,5.70
2022-12-26T10:43:32.626Z,4.00
2022-12-26T10:46:20.786Z,7.90
2022-12-26T10:48:48.365Z,2.25
2022-12-26T10:51:16.438Z,4.80
2022-12-26T10:53:49.718Z,3.15
2022-12-26T10:56:18.520Z,3.10
2022-12-26T10:58:45.909Z,2.28
2022-12-26T11:01:33.657Z,3.92
2022-12-26T11:04:02.963Z,7.03
2022-12-26T11:06:40.887Z,4.60
2022-12-26T11:09:47.862Z,7.20
2022-12-26T11:12:21.684Z,9.48
2022-12-26T11:14:49.061Z,5.85
2022-12-26T11:17:25.540Z,3.15
2022-12-26T11:20:27.983Z,6.50
2022-12-26T11:25:35.008Z,7.00
2022-12-26T11:28:39.072Z,4.35
2022-12-26T11:31:08.115Z,3.42
2022-12-26T11:34:01.575Z,5.30
2022-12-26T11:36:30.087Z,2.75
2022-12-26T11:39:00.627Z,3.45
2022-12-26T11:41:33.631Z,5.25
2022-12-26T11:44:12.165Z,3.40
2022-12-26T11:47:08.028Z,3.40
2022-12-26T11:49:36.245Z,2.33
2022-12-26T11:52:42.903Z,3.67
2022-12-26T11:55:30.891Z,2.85
2022-12-26T11:58:06.588Z,6.43
2022-12-26T12:00:41.294Z,5.32
2022-12-26T12:03:32.400Z,3.00
2022-12-26T12:06:14.123Z,3.85
2022-12-26T12:08:53.795Z,6.07
2022-12-26T12:11:26.059Z,3.53
2022-12-26T12:14:12.540Z,6.38
2022-12-26T12:16:49.398Z,5.07
2022-12-26T12:19:21.676Z,4.65
2022-12-26T12:22:16.161Z,2.65
2022-12-26T12:24:54.291Z,4.40
2022-12-26T12:27:33.365Z,3.78
2022-12-26T12:30:30.839Z,3.40
2022-12-26T12:33:35.765Z,2.45
2022-12-26T12:36:39.029Z,4.70
2022-12-26T12:39:39.583Z,2.78
2022-12-26T12:42:32.904Z,4.30
2022-12-26T12:45:18.132Z,7.80
2022-12-26T12:48:16.125Z,12.95
2022-12-26T12:51:05.845Z,11.60
2022-12-26T12:53:38.079Z,10.52
2022-12-26T12:56:38.371Z,13.88
2022-12-26T12:59:28.267Z,9.20
2022-12-26T13:02:05.465Z,9.60
2022-12-26T13:04:43.267Z,12.27
2022-12-26T13:07:22.211Z,10.10
2022-12-26T13:10:00.210Z,8.60
2022-12-26T13:12:34.962Z,9.77
2022-12-26T13:15:34.622Z,10.27
2022-12-26T13:18:11.873Z,3.53
2022-12-26T13:20:53.434Z,8.00
2022-12-26T13:23:48.549Z,8.02
2022-12-26T13:26:20.298Z,8.80
2022-12-26T13:29:17.670Z,4.50
2022-12-26T13:31:44.954Z,7.53
2022-12-26T13:34:17.285Z,12.10
2022-12-26T13:36:54.769Z,28.30
2022-12-26T13:39:27.161Z,9.27
2022-12-26T13:42:29.633Z,18.25
2022-12-26T13:47:42.511Z,7.53
2022-12-26T13:50:54.918Z,8.30
2022-12-26T13:53:25.269Z,4.70
2022-12-26T13:55:54.568Z,6.38
2022-12-26T13:58:42.459Z,6.95
2022-12-26T14:01:49.994Z,4.25
2022-12-26T14:04:27.869Z,4.95
2022-12-26T14:07:04.265Z,3.08
2022-12-26T14:09:58.509Z,4.93
2022-12-26T14:13:00.004Z,6.68
2022-12-26T14:15:52.838Z,6.05
2022-12-26T14:18:38.209Z,8.00
2022-12-26T14:21:29.304Z,5.57
2022-12-26T14:24:02.651Z,10.45
2022-12-26T14:27:04.591Z,7.38
2022-12-26T14:29:39.903Z,9.88
2022-12-26T14:32:28.711Z,6.50
2022-12-26T14:34:57.832Z,4.43
2022-12-26T14:37:48.569Z,7.75
2022-12-26T14:40:34.816Z,5.35
2022-12-26T14:43:10.728Z,5.75
2022-12-26T14:45:37.308Z,5.18
2022-12-26T14:48:23.795Z,5.97
2022-12-26T14:50:52.361Z,6.85
2022-12-26T14:53:24.505Z,8.80
2022-12-26T14:56:04.845Z,6.03
2022-12-26T14:58:31.346Z,9.00
2022-12-26T15:01:18.279Z,9.98
2022-12-26T15:03:50.982Z,8.15
2022-12-26T15:06:20.614Z,6.72
2022-12-26T15:09:21.198Z,7.47
2022-12-26T15:12:25.261Z,6.60
2022-12-26T15:14:51.712Z,5.30
2022-12-26T15:17:47.109Z,6.85
2022-12-26T15:20:44.497Z,4.93
2022-12-26T15:23:14.187Z,8.00
2022-12-26T15:26:02.192Z,5.88
2022-12-26T15:29:16.395Z,5.13
2022-12-26T15:31:47.667Z,4.88
2022-12-26T15:34:32.729Z,8.23
2022-12-26T15:37:17.714Z,6.72
2022-12-26T15:39:49.860Z,7.03
2022-12-26T15:42:34.751Z,4.10
2022-12-26T15:45:07.316Z,3.58
2022-12-26T15:47:43.077Z,4.78
2022-12-26T15:50:31.248Z,4.70
2022-12-26T15:53:16.149Z,5.22
2022-12-26T15:56:00.829Z,5.57
2022-12-26T15:58:58.216Z,7.65
2022-12-26T16:01:40.191Z,6.53
2022-12-26T16:04:13.599Z,5.95
2022-12-26T16:06:55.871Z,6.57
2022-12-26T16:09:31.322Z,5.95
2022-12-26T16:12:00.288Z,5.70
2022-12-26T16:14:36.261Z,4.22
2022-12-26T16:17:15.272Z,6.15
2022-12-26T16:19:44.547Z,6.97
2022-12-26T16:22:37.273Z,8.57
2022-12-26T16:25:04.107Z,5.72
2022-12-26T16:27:30.955Z,6.32
2022-12-26T16:30:11.368Z,8.70
2022-12-26T16:32:41.699Z,8.50
2022-12-26T16:35:18.056Z,5.07
2022-12-26T16:37:47.711Z,8.63
2022-12-26T16:40:41.487Z,7.88
2022-12-26T16:43:28.172Z,5.80
2022-12-26T16:46:04.746Z,8.90
2022-12-26T16:48:33.869Z,8.15
2022-12-26T16:51:06.109Z,9.23
2022-12-26T16:53:35.686Z,9.65
2022-12-26T16:56:23.734Z,5.22
2022-12-26T16:59:04.919Z,7.65
2022-12-26T17:01:34.469Z,12.40
2022-12-26T17:04:06.609Z,10.32
2022-12-26T17:09:10.256Z,6.10
2022-12-26T17:11:45.349Z,8.10
2022-12-26T17:14:38.685Z,9.10
2022-12-26T17:17:08.410Z,11.40
2022-12-26T17:19:36.986Z,12.90
2022-12-26T17:22:15.605Z,11.57
2022-12-26T17:24:47.050Z,8.82
2022-12-26T17:27:26.720Z,14.55
2022-12-26T17:29:53.169Z,7.85
2022-12-26T17:32:30.237Z,15.55
2022-12-26T17:35:03.540Z,15.75
2022-12-26T17:37:30.981Z,13.13
2022-12-26T17:40:19.389Z,10.40
2022-12-26T17:42:54.702Z,14.25
2022-12-26T17:45:27.577Z,10.88
2022-12-26T17:47:55.587Z,9.32
2022-12-26T17:50:24.321Z,11.75
2022-12-26T17:52:51.338Z,8.95
2022-12-26T17:55:27.177Z,15.63
2022-12-26T17:57:53.900Z,8.95
2022-12-26T18:00:24.146Z,10.50
2022-12-26T18:02:51.418Z,11.13
2022-12-26T18:05:19.817Z,10.38
2022-12-26T18:07:47.369Z,11.40
2022-12-26T18:10:22.555Z,9.55
2022-12-26T18:12:51.628Z,10.38
2022-12-26T18:15:18.951Z,11.45
2022-12-26T18:17:48.051Z,11.05
2022-12-26T18:20:21.186Z,7.20
2022-12-26T18:22:48.306Z,13.90
2022-12-26T18:25:17.192Z,10.60
2022-12-26T18:27:44.486Z,18.80
2022-12-26T18:30:25.515Z,13.15
2022-12-26T18:32:53.287Z,15.95
2022-12-26T18:35:20.306Z,9.98
2022-12-26T18:37:49.627Z,14.40
2022-12-26T18:40:30.650Z,10.38
2022-12-26T18:42:57.222Z,13.32
2022-12-26T18:45:23.814Z,12.07
2022-12-26T18:47:50.413Z,11.23
2022-12-26T18:50:17.548Z,15.38
2022-12-26T18:52:47.474Z,16.85
2022-12-26T18:55:16.495Z,12.63
2022-12-26T18:57:43.189Z,12.18
2022-12-26T19:00:13.621Z,13.35
2022-12-26T19:02:40.562Z,9.75
2022-12-26T19:05:14.232Z,12.90
2022-12-26T19:07:40.808Z,14.48
2022-12-26T19:10:10.423Z,9.30
2022-12-26T19:12:36.867Z,13.43
2022-12-26T19:15:03.754Z,18.73
2022-12-26T19:17:30.314Z,18.13
2022-12-26T19:19:56.838Z,12.75
2022-12-26T19:22:23.295Z,12.10
2022-12-26T19:24:49.903Z,15.88
2022-12-26T19:27:16.393Z,11.82
2022-12-26T19:29:43.189Z,19.75
2022-12-26T19:32:09.712Z,17.23
2022-12-26T19:34:36.217Z,18.95
2022-12-26T19:37:02.709Z,17.35
2022-12-26T19:39:29.509Z,13.55
2022-12-26T19:41:56.009Z,17.33
2022-12-26T19:44:22.525Z,19.45
2022-12-26T19:46:49.063Z,12.70
2022-12-26T19:49:16.698Z,18.60
2022-12-26T19:51:43.256Z,15.85
2022-12-26T19:54:09.781Z,19.17
2022-12-26T19:56:36.281Z,16.05
2022-12-26T19:59:02.731Z,13.57
2022-12-26T20:01:31.761Z,20.10
2022-12-26T20:04:01.596Z,19.95
2022-12-26T20:06:30.357Z,13.02
2022-12-26T20:08:59.135Z,19.48
2022-12-26T20:11:30.496Z,16.05
2022-12-26T20:13:57.452Z,15.02
2022-12-26T20:17:03.419Z,17.77
2022-12-26T20:19:15.918Z,19.77
2022-12-26T20:21:42.361Z,13.80
2022-12-26T20:24:11.334Z,16.92
2022-12-26T20:26:38.444Z,18.80
2022-12-26T20:29:05.210Z,17.35
2022-12-26T20:31:32.992Z,14.07
2022-12-26T20:34:00.141Z,11.68
2022-12-26T20:36:32.435Z,18.25
2022-12-26T20:39:01.809Z,15.30
2022-12-26T20:41:28.966Z,17.17
2022-12-26T20:43:55.978Z,27.30
2022-12-26T20:46:31.843Z,24.50
2022-12-26T20:48:59.497Z,35.25
2022-12-26T20:51:36.419Z,40.90
2022-12-26T20:54:04.570Z,25.10
2022-12-26T20:56:31.236Z,20.15
2022-12-26T20:58:59.537Z,13.07
2022-12-26T21:01:27.209Z,14.98
2022-12-26T21:03:55.307Z,23.50
2022-12-26T21:06:28.895Z,17.35
2022-12-26T21:08:56.574Z,18.58
2022-12-26T21:11:24.808Z,16.83
2022-12-26T21:13:54.793Z,22.23
2022-12-26T21:16:34.353Z,17.55
2022-12-26T21:19:02.641Z,17.17
2022-12-26T21:21:32.310Z,21.83
2022-12-26T21:24:02.576Z,27.83
2022-12-26T21:26:29.342Z,22.67
2022-12-26T21:29:01.248Z,16.30
2022-12-26T21:33:59.246Z,26.90
2022-12-26T21:36:27.575Z,5.95
2022-12-26T21:38:55.137Z,9.93
2022-12-26T21:41:22.342Z,8.13
2022-12-26T21:43:56.168Z,5.15
2022-12-26T21:46:22.755Z,9.65
2022-12-26T21:48:50.177Z,11.88
2022-12-26T21:51:21.209Z,9.40
2022-12-26T21:53:48.841Z,11.63
2022-12-26T21:56:20.045Z,11.57
2022-12-26T21:59:05.067Z,9.60
2022-12-26T22:01:31.688Z,9.07
2022-12-26T22:04:19.766Z,12.50
2022-12-26T22:06:46.734Z,15.10
2022-12-26T22:09:14.869Z,9.80
2022-12-26T22:11:59.665Z,14.60
2022-12-26T22:14:26.199Z,9.90
2022-12-26T22:16:55.384Z,15.30
2022-12-26T22:19:24.570Z,9.77
2022-12-26T22:21:54.994Z,10.40
2022-12-26T22:24:21.991Z,11.98
2022-12-26T22:26:48.566Z,12.70
2022-12-26T22:29:15.218Z,9.65
2022-12-26T22:31:41.740Z,9.20
2022-12-26T22:34:12.427Z,10.32
2022-12-26T22:36:39.421Z,12.68
2022-12-26T22:39:06.258Z,9.32
2022-12-26T22:41:33.595Z,13.65
2022-12-26T22:44:03.748Z,11.82
2022-12-26T22:46:30.366Z,14.88
2022-12-26T22:48:58.081Z,13.63
2022-12-26T22:51:26.175Z,14.38
2022-12-26T22:53:58.276Z,13.00
2022-12-26T22:56:25.523Z,17.50
2022-12-26T22:58:53.956Z,17.52
2022-12-26T23:01:23.733Z,16.77
2022-12-26T23:03:50.339Z,20.08
2022-12-26T23:06:19.764Z,20.92
2022-12-26T23:08:52.897Z,17.58
2022-12-26T23:11:19.960Z,13.38
2022-12-26T23:13:46.922Z,15.65
2022-12-26T23:16:28.521Z,17.05
2022-12-26T23:19:18.260Z,19.17
2022-12-26T23:21:48.686Z,15.32
2022-12-26T23:24:17.015Z,11.82
2022-12-26T23:26:49.922Z,14.18
2022-12-26T23:29:38.129Z,13.43
2022-12-26T23:32:05.629Z,18.80
2022-12-26T23:34:34.735Z,16.08
2022-12-26T23:37:01.367Z,20.27
2022-12-26T23:39:27.952Z,17.70
2022-12-26T23:41:54.843Z,17.88
2022-12-26T23:44:21.428Z,17.67
2022-12-26T23:46:48.047Z,15.85
2022-12-26T23:49:15.476Z,15.32
2022-12-26T23:51:42.801Z,17.52
2022-12-26T23:54:12.827Z,18.73
2022-12-26T23:56:42.432Z,12.98
2022-12-26T23:59:08.881Z,14.18
